BAW135 EGLL-VABB
Flight info
| Callsign | BAW135 |
|---|---|
| Flight time | N/A |
| Altitude | 33000 |
| Route | DET1J DET L6 DVR UL9 KONAN DCT KOK DCT KOMOB DCT PITES DCT BABEG DCT KUMOM DCT VEKEN DCT ELTIB DCT AKIKA DCT MAVAR/N0480F350 DCT BITLA UN132 KEA UL607 PAXIS L607 NABSI P557 OBRAN L321 REXUM M872 PMA Y214 SIKNU/N0483F370 Y214 RAPMA DCT MEVDO DCT ALROK DCT DEBIN DCT MIDGU M440 TULBU N881 AMBOS M700 PARAR N571 SUGID KETOR2A |
| Aircraft | B772/H-SDE2E3FGHIJ5LORVWXY/LB1D1 |
Departure
| Time | 2026-05-07 15:09 |
|---|---|
| Airport | London Heathrow Airport (EGLL) |
Arrival
| Time | N/A |
|---|---|
| Airport | Chhatrapati Shivaji Maharaj International Airport (VABB) |
| Time | Latitude | Longitude | Altitude | Speed | Heading |
|---|---|---|---|---|---|
| 2026-05-07 13:56 | 51.47114 | -0.48226 | 91 ft | 0 kts | 90° |
| 2026-05-07 14:25 | 51.47114 | -0.48227 | 91 ft | 0 kts | 90° |
| 2026-05-07 14:52 | 51.47114 | -0.48229 | 91 ft | 1 kts | 90° |
| 2026-05-07 14:53 | 51.47114 | -0.48269 | 91 ft | 4 kts | 90° |
| 2026-05-07 14:53 | 51.47114 | -0.48305 | 91 ft | 4 kts | 97° |
| 2026-05-07 14:53 | 51.47122 | -0.48342 | 94 ft | 4 kts | 138° |
| 2026-05-07 14:53 | 51.47145 | -0.48359 | 93 ft | 4 kts | 175° |
| 2026-05-07 14:54 | 51.47163 | -0.48360 | 92 ft | 1 kts | 180° |
| 2026-05-07 15:00 | 51.47147 | -0.48359 | 94 ft | 5 kts | 179° |
| 2026-05-07 15:01 | 51.47113 | -0.48359 | 92 ft | 5 kts | 180° |
| 2026-05-07 15:01 | 51.47078 | -0.48359 | 94 ft | 5 kts | 179° |
| 2026-05-07 15:01 | 51.47044 | -0.48359 | 94 ft | 5 kts | 181° |
| 2026-05-07 15:01 | 51.46995 | -0.48358 | 94 ft | 15 kts | 179° |
| 2026-05-07 15:02 | 51.46913 | -0.48356 | 94 ft | 8 kts | 180° |
| 2026-05-07 15:02 | 51.46862 | -0.48356 | 94 ft | 5 kts | 179° |
| 2026-05-07 15:02 | 51.46833 | -0.48356 | 94 ft | 4 kts | 179° |
| 2026-05-07 15:02 | 51.46805 | -0.48355 | 92 ft | 4 kts | 179° |
| 2026-05-07 15:03 | 51.46773 | -0.48358 | 91 ft | 5 kts | 190° |
| 2026-05-07 15:03 | 51.46745 | -0.48394 | 95 ft | 5 kts | 244° |
| 2026-05-07 15:03 | 51.46742 | -0.48461 | 92 ft | 7 kts | 268° |
| 2026-05-07 15:03 | 51.46741 | -0.48548 | 91 ft | 9 kts | 269° |
| 2026-05-07 15:04 | 51.46741 | -0.48651 | 91 ft | 6 kts | 269° |
| 2026-05-07 15:04 | 51.46733 | -0.48723 | 92 ft | 7 kts | 240° |
| 2026-05-07 15:04 | 51.46689 | -0.48748 | 93 ft | 5 kts | 185° |
| 2026-05-07 15:04 | 51.46658 | -0.48750 | 93 ft | 5 kts | 181° |
| 2026-05-07 15:05 | 51.46647 | -0.48751 | 93 ft | 2 kts | 183° |
| 2026-05-07 15:05 | 51.46627 | -0.48756 | 94 ft | 2 kts | 194° |
| 2026-05-07 15:05 | 51.46613 | -0.48764 | 94 ft | 2 kts | 198° |
| 2026-05-07 15:05 | 51.46612 | -0.48764 | 94 ft | 0 kts | 198° |
| 2026-05-07 15:06 | 51.46603 | -0.48769 | 94 ft | 3 kts | 199° |
| 2026-05-07 15:06 | 51.46580 | -0.48780 | 94 ft | 4 kts | 195° |
| 2026-05-07 15:06 | 51.46537 | -0.48788 | 91 ft | 8 kts | 176° |
| 2026-05-07 15:07 | 51.46490 | -0.48739 | 95 ft | 8 kts | 124° |
| 2026-05-07 15:07 | 51.46479 | -0.48665 | 95 ft | 5 kts | 94° |
| 2026-05-07 15:07 | 51.46479 | -0.48628 | 95 ft | 3 kts | 89° |
| 2026-05-07 15:07 | 51.46479 | -0.48620 | 94 ft | 0 kts | 89° |
| 2026-05-07 15:08 | 51.46479 | -0.48517 | 93 ft | 34 kts | 89° |
| 2026-05-07 15:08 | 51.46479 | -0.47715 | 90 ft | 107 kts | 90° |
| 2026-05-07 15:08 | 51.46485 | -0.46203 | 95 ft | 162 kts | 89° |
| 2026-05-07 15:09 | 51.46479 | -0.44253 | 503 ft | 174 kts | 91° |
| 2026-05-07 15:09 | 51.46461 | -0.42310 | 1250 ft | 179 kts | 91° |
| 2026-05-07 15:09 | 51.46444 | -0.40277 | 1818 ft | 188 kts | 92° |
| 2026-05-07 15:09 | 51.46248 | -0.38229 | 2551 ft | 184 kts | 115° |
| 2026-05-07 15:10 | 51.45604 | -0.36499 | 3104 ft | 180 kts | 128° |
| 2026-05-07 15:10 | 51.44831 | -0.34855 | 3278 ft | 191 kts | 128° |
| 2026-05-07 15:10 | 51.44111 | -0.33012 | 3500 ft | 199 kts | 116° |
| 2026-05-07 15:10 | 51.43560 | -0.30963 | 3832 ft | 201 kts | 111° |
| 2026-05-07 15:11 | 51.43092 | -0.28820 | 4130 ft | 206 kts | 110° |
| 2026-05-07 15:11 | 51.42648 | -0.26591 | 4299 ft | 217 kts | 107° |
| 2026-05-07 15:11 | 51.42254 | -0.24170 | 4434 ft | 232 kts | 105° |
| 2026-05-07 15:11 | 51.41872 | -0.21581 | 4639 ft | 246 kts | 103° |
| 2026-05-07 15:12 | 51.41486 | -0.18853 | 4903 ft | 260 kts | 103° |
| 2026-05-07 15:12 | 51.41087 | -0.15984 | 5321 ft | 268 kts | 103° |
| 2026-05-07 15:12 | 51.40682 | -0.13055 | 5831 ft | 270 kts | 103° |
| 2026-05-07 15:12 | 51.40270 | -0.10087 | 5993 ft | 276 kts | 103° |
| 2026-05-07 15:13 | 51.39857 | -0.07093 | 6034 ft | 274 kts | 103° |
| 2026-05-07 15:13 | 51.39446 | -0.04120 | 6434 ft | 273 kts | 103° |
| 2026-05-07 15:13 | 51.39032 | -0.01136 | 7000 ft | 275 kts | 103° |
| 2026-05-07 15:13 | 51.38618 | 0.01847 | 7588 ft | 276 kts | 104° |
| 2026-05-07 15:14 | 51.38197 | 0.04864 | 8129 ft | 279 kts | 104° |
| 2026-05-07 15:14 | 51.37777 | 0.07866 | 8632 ft | 282 kts | 104° |
| 2026-05-07 15:14 | 51.37347 | 0.10939 | 9196 ft | 284 kts | 104° |
| 2026-05-07 15:14 | 51.36912 | 0.14040 | 9749 ft | 287 kts | 104° |
| 2026-05-07 15:15 | 51.36471 | 0.17173 | 10266 ft | 290 kts | 104° |
| 2026-05-07 15:15 | 51.36027 | 0.20328 | 10765 ft | 291 kts | 104° |
| 2026-05-07 15:15 | 51.35579 | 0.23494 | 11265 ft | 293 kts | 104° |
| 2026-05-07 15:15 | 51.35128 | 0.26681 | 11782 ft | 295 kts | 104° |
| 2026-05-07 15:16 | 51.34672 | 0.29895 | 12288 ft | 297 kts | 104° |
| 2026-05-07 15:16 | 51.34220 | 0.33078 | 12825 ft | 299 kts | 104° |
| 2026-05-07 15:16 | 51.33757 | 0.36338 | 13370 ft | 301 kts | 104° |
| 2026-05-07 15:16 | 51.33291 | 0.39611 | 13924 ft | 304 kts | 104° |
| 2026-05-07 15:17 | 51.32817 | 0.42926 | 14388 ft | 308 kts | 104° |
| 2026-05-07 15:17 | 51.32335 | 0.46287 | 14689 ft | 311 kts | 104° |
| 2026-05-07 15:17 | 51.31848 | 0.49675 | 15182 ft | 315 kts | 104° |
| 2026-05-07 15:17 | 51.31354 | 0.53104 | 15669 ft | 318 kts | 104° |
| 2026-05-07 15:18 | 51.30853 | 0.56570 | 16160 ft | 321 kts | 104° |
| 2026-05-07 15:18 | 51.30343 | 0.60069 | 16667 ft | 324 kts | 105° |
| 2026-05-07 15:18 | 51.29756 | 0.63558 | 17171 ft | 327 kts | 108° |
| 2026-05-07 15:18 | 51.29333 | 0.65878 | 17493 ft | 329 kts | 108° |
| 2026-05-07 15:19 | 51.28452 | 0.70594 | 18142 ft | 334 kts | 108° |
| 2026-05-07 15:19 | 51.27782 | 0.74177 | 18293 ft | 348 kts | 108° |
| 2026-05-07 15:19 | 51.27079 | 0.77961 | 18430 ft | 363 kts | 108° |
| 2026-05-07 15:19 | 51.26349 | 0.81901 | 18557 ft | 377 kts | 108° |
| 2026-05-07 15:20 | 51.25593 | 0.85994 | 18675 ft | 392 kts | 108° |
| 2026-05-07 15:20 | 51.25077 | 0.88789 | 18761 ft | 403 kts | 108° |
| 2026-05-07 15:20 | 51.24270 | 0.93163 | 18947 ft | 417 kts | 108° |
| 2026-05-07 15:20 | 51.23157 | 0.99191 | 19455 ft | 428 kts | 107° |
| 2026-05-07 15:21 | 51.22597 | 1.02218 | 19796 ft | 431 kts | 108° |
| 2026-05-07 15:21 | 51.21466 | 1.08317 | 20572 ft | 435 kts | 108° |
| 2026-05-07 15:21 | 51.20603 | 1.12953 | 21144 ft | 438 kts | 108° |
| 2026-05-07 15:21 | 51.19730 | 1.17631 | 21684 ft | 442 kts | 108° |
| 2026-05-07 15:22 | 51.19148 | 1.20744 | 22023 ft | 444 kts | 108° |
| 2026-05-07 15:22 | 51.18260 | 1.25486 | 22535 ft | 448 kts | 108° |
| 2026-05-07 15:22 | 51.17058 | 1.31892 | 23181 ft | 453 kts | 107° |
| 2026-05-07 15:22 | 51.16534 | 1.35111 | 23493 ft | 456 kts | 103° |
| 2026-05-07 15:23 | 51.16007 | 1.40113 | 23886 ft | 460 kts | 96° |
| 2026-05-07 15:23 | 51.15712 | 1.46871 | 24442 ft | 463 kts | 94° |
| 2026-05-07 15:23 | 51.15569 | 1.50332 | 24714 ft | 465 kts | 95° |
| 2026-05-07 15:23 | 51.15343 | 1.55485 | 25103 ft | 467 kts | 95° |
| 2026-05-07 15:24 | 51.15105 | 1.60586 | 25453 ft | 470 kts | 95° |
| 2026-05-07 15:24 | 51.14851 | 1.65786 | 25806 ft | 472 kts | 95° |
| 2026-05-07 15:24 | 51.14590 | 1.71014 | 26154 ft | 475 kts | 95° |
| 2026-05-07 15:24 | 51.14325 | 1.76265 | 26484 ft | 477 kts | 95° |
| 2026-05-07 15:25 | 51.14055 | 1.81543 | 26821 ft | 479 kts | 95° |
| 2026-05-07 15:25 | 51.13783 | 1.86849 | 27172 ft | 481 kts | 95° |
| 2026-05-07 15:25 | 51.13509 | 1.92163 | 27500 ft | 483 kts | 95° |
| 2026-05-07 15:25 | 51.13232 | 1.97501 | 27816 ft | 485 kts | 95° |
| 2026-05-07 15:26 | 51.12950 | 2.02860 | 28105 ft | 487 kts | 96° |
| 2026-05-07 15:26 | 51.12668 | 2.08170 | 28374 ft | 489 kts | 96° |
| 2026-05-07 15:26 | 51.12378 | 2.13582 | 28650 ft | 491 kts | 96° |
| 2026-05-07 15:26 | 51.12086 | 2.19007 | 28887 ft | 493 kts | 96° |
| 2026-05-07 15:27 | 51.11790 | 2.24455 | 29128 ft | 495 kts | 96° |
| 2026-05-07 15:27 | 51.11491 | 2.29921 | 29347 ft | 497 kts | 96° |
| 2026-05-07 15:27 | 51.11188 | 2.35413 | 29561 ft | 499 kts | 96° |
| 2026-05-07 15:27 | 51.10883 | 2.40910 | 29784 ft | 500 kts | 96° |
| 2026-05-07 15:28 | 51.10574 | 2.46417 | 30078 ft | 499 kts | 96° |
| 2026-05-07 15:28 | 51.10269 | 2.51828 | 30380 ft | 497 kts | 96° |
| 2026-05-07 15:28 | 51.09945 | 2.57303 | 30651 ft | 496 kts | 98° |
| 2026-05-07 15:28 | 51.09345 | 2.62694 | 30854 ft | 495 kts | 105° |
| 2026-05-07 15:29 | 51.08351 | 2.67926 | 31077 ft | 494 kts | 111° |
| 2026-05-07 15:29 | 51.07052 | 2.72964 | 31304 ft | 492 kts | 118° |
| 2026-05-07 15:29 | 51.05467 | 2.77770 | 31500 ft | 491 kts | 120° |
| 2026-05-07 15:29 | 51.03855 | 2.82550 | 31743 ft | 490 kts | 120° |
| 2026-05-07 15:30 | 51.02248 | 2.87321 | 32000 ft | 489 kts | 120° |
| 2026-05-07 15:30 | 51.00652 | 2.92084 | 32221 ft | 488 kts | 120° |
| 2026-05-07 15:30 | 50.99065 | 2.96842 | 32435 ft | 488 kts | 119° |
| 2026-05-07 15:30 | 50.97482 | 3.01604 | 32627 ft | 488 kts | 119° |
| 2026-05-07 15:31 | 50.95918 | 3.06310 | 32844 ft | 488 kts | 119° |
| 2026-05-07 15:31 | 50.94338 | 3.11063 | 32993 ft | 489 kts | 119° |
| 2026-05-07 15:31 | 50.91156 | 3.20610 | 33063 ft | 489 kts | 119° |
| 2026-05-07 15:32 | 50.87979 | 3.30103 | 33056 ft | 486 kts | 120° |
| 2026-05-07 15:32 | 50.84808 | 3.39540 | 33064 ft | 485 kts | 120° |
| 2026-05-07 15:33 | 50.81651 | 3.48896 | 33063 ft | 486 kts | 120° |
| 2026-05-07 15:33 | 50.78456 | 3.58331 | 33069 ft | 488 kts | 120° |
| 2026-05-07 15:34 | 50.75237 | 3.67797 | 33064 ft | 490 kts | 120° |
| 2026-05-07 15:34 | 50.72002 | 3.77279 | 33087 ft | 491 kts | 120° |
| 2026-05-07 15:35 | 50.68754 | 3.86764 | 33069 ft | 491 kts | 120° |
| 2026-05-07 15:35 | 50.65522 | 3.96167 | 33086 ft | 491 kts | 120° |
| 2026-05-07 15:36 | 50.62267 | 4.05601 | 33066 ft | 490 kts | 120° |
| 2026-05-07 15:36 | 50.59007 | 4.15014 | 33062 ft | 489 kts | 120° |
| 2026-05-07 15:37 | 50.55743 | 4.24404 | 33076 ft | 489 kts | 120° |
| 2026-05-07 15:37 | 50.52493 | 4.33715 | 33080 ft | 490 kts | 120° |
| 2026-05-07 15:38 | 50.49208 | 4.43096 | 33075 ft | 490 kts | 120° |
| 2026-05-07 15:38 | 50.45911 | 4.52477 | 33075 ft | 491 kts | 121° |
| 2026-05-07 15:39 | 50.42603 | 4.61855 | 33076 ft | 491 kts | 121° |
| 2026-05-07 15:39 | 50.39310 | 4.71156 | 33074 ft | 491 kts | 121° |
| 2026-05-07 15:40 | 50.35993 | 4.80490 | 33070 ft | 491 kts | 121° |
| 2026-05-07 15:40 | 50.32668 | 4.89814 | 33068 ft | 490 kts | 121° |
| 2026-05-07 15:41 | 50.29342 | 4.99105 | 33050 ft | 490 kts | 121° |
| 2026-05-07 15:41 | 50.26006 | 5.08389 | 33063 ft | 490 kts | 121° |
| 2026-05-07 15:42 | 50.22683 | 5.17605 | 33059 ft | 490 kts | 121° |
| 2026-05-07 15:42 | 50.19328 | 5.26877 | 33054 ft | 491 kts | 121° |
| 2026-05-07 15:43 | 50.15963 | 5.36142 | 33067 ft | 491 kts | 121° |
| 2026-05-07 15:43 | 50.12584 | 5.45413 | 33055 ft | 492 kts | 121° |
| 2026-05-07 15:44 | 50.09196 | 5.54677 | 33051 ft | 491 kts | 121° |
| 2026-05-07 15:44 | 50.05834 | 5.63837 | 33052 ft | 491 kts | 121° |
| 2026-05-07 15:45 | 50.02440 | 5.73051 | 33048 ft | 491 kts | 121° |
| 2026-05-07 15:45 | 49.99040 | 5.82247 | 33046 ft | 491 kts | 121° |
| 2026-05-07 15:46 | 49.93923 | 5.96026 | 33059 ft | 491 kts | 121° |
| 2026-05-07 15:47 | 49.90526 | 6.05135 | 33041 ft | 491 kts | 121° |
| 2026-05-07 15:47 | 49.87095 | 6.14303 | 33043 ft | 491 kts | 121° |
| 2026-05-07 15:48 | 49.83659 | 6.23449 | 33040 ft | 491 kts | 121° |
| 2026-05-07 15:48 | 49.80213 | 6.32594 | 33045 ft | 491 kts | 121° |
| 2026-05-07 15:49 | 49.76763 | 6.41719 | 33040 ft | 492 kts | 121° |
| 2026-05-07 15:49 | 49.73326 | 6.50781 | 33039 ft | 492 kts | 121° |
| 2026-05-07 15:50 | 49.70212 | 6.60210 | 33031 ft | 493 kts | 116° |
| 2026-05-07 15:50 | 49.67223 | 6.69740 | 33030 ft | 493 kts | 116° |
| 2026-05-07 15:51 | 49.64214 | 6.79253 | 33033 ft | 493 kts | 116° |
| 2026-05-07 15:51 | 49.61183 | 6.88752 | 33030 ft | 493 kts | 116° |
| 2026-05-07 15:52 | 49.58163 | 6.98162 | 33028 ft | 493 kts | 116° |
| 2026-05-07 15:52 | 49.55114 | 7.07627 | 33034 ft | 493 kts | 116° |
| 2026-05-07 15:53 | 49.52062 | 7.17068 | 33025 ft | 493 kts | 117° |
| 2026-05-07 15:53 | 49.48999 | 7.26508 | 33043 ft | 493 kts | 117° |
| 2026-05-07 15:54 | 49.45946 | 7.35883 | 33049 ft | 494 kts | 117° |
| 2026-05-07 15:54 | 49.42864 | 7.45313 | 33052 ft | 494 kts | 117° |
| 2026-05-07 15:55 | 49.39772 | 7.54737 | 33049 ft | 494 kts | 117° |
| 2026-05-07 15:55 | 49.36672 | 7.64150 | 33050 ft | 494 kts | 117° |
| 2026-05-07 15:56 | 49.33586 | 7.73485 | 33041 ft | 493 kts | 117° |
| 2026-05-07 15:56 | 49.30481 | 7.82843 | 33050 ft | 493 kts | 117° |
| 2026-05-07 15:57 | 49.27365 | 7.92201 | 33052 ft | 493 kts | 117° |
| 2026-05-07 15:57 | 49.24245 | 8.01536 | 33036 ft | 492 kts | 118° |
| 2026-05-07 15:58 | 49.21118 | 8.10861 | 33045 ft | 493 kts | 118° |
| 2026-05-07 15:58 | 49.17996 | 8.20132 | 33043 ft | 494 kts | 118° |
| 2026-05-07 15:59 | 49.14839 | 8.29475 | 33042 ft | 495 kts | 118° |
| 2026-05-07 15:59 | 49.11670 | 8.38818 | 33037 ft | 496 kts | 118° |
| 2026-05-07 16:00 | 49.08491 | 8.48158 | 33037 ft | 496 kts | 118° |
| 2026-05-07 16:00 | 49.05325 | 8.57425 | 33037 ft | 496 kts | 118° |
| 2026-05-07 16:01 | 49.02132 | 8.66741 | 33034 ft | 496 kts | 118° |
| 2026-05-07 16:01 | 48.98932 | 8.76040 | 33031 ft | 495 kts | 118° |
| 2026-05-07 16:02 | 48.95727 | 8.85320 | 33019 ft | 495 kts | 118° |
| 2026-05-07 16:02 | 48.92511 | 8.94598 | 33034 ft | 497 kts | 118° |
| 2026-05-07 16:03 | 48.89297 | 9.03837 | 33023 ft | 498 kts | 118° |
| 2026-05-07 16:03 | 48.86055 | 9.13124 | 33038 ft | 497 kts | 119° |
| 2026-05-07 16:04 | 48.82813 | 9.22380 | 33044 ft | 496 kts | 119° |
| 2026-05-07 16:04 | 48.79564 | 9.31619 | 33043 ft | 496 kts | 119° |
| 2026-05-07 16:05 | 48.76313 | 9.40835 | 33021 ft | 496 kts | 119° |
| 2026-05-07 16:05 | 48.73073 | 9.49984 | 33024 ft | 496 kts | 119° |
| 2026-05-07 16:06 | 48.69809 | 9.59178 | 33018 ft | 496 kts | 119° |
| 2026-05-07 16:06 | 48.66529 | 9.68356 | 33015 ft | 496 kts | 120° |
| 2026-05-07 16:07 | 48.63048 | 9.77358 | 33020 ft | 496 kts | 122° |
| 2026-05-07 16:07 | 48.59474 | 9.86269 | 33023 ft | 496 kts | 122° |
| 2026-05-07 16:08 | 48.55932 | 9.95139 | 33026 ft | 497 kts | 122° |
| 2026-05-07 16:08 | 48.52378 | 10.04092 | 33024 ft | 497 kts | 122° |
| 2026-05-07 16:09 | 48.48829 | 10.13033 | 33035 ft | 497 kts | 122° |
| 2026-05-07 16:09 | 48.45267 | 10.21974 | 33025 ft | 497 kts | 122° |
| 2026-05-07 16:10 | 48.41699 | 10.30898 | 33030 ft | 497 kts | 122° |
| 2026-05-07 16:10 | 48.38125 | 10.39802 | 33036 ft | 497 kts | 122° |
| 2026-05-07 16:11 | 48.34541 | 10.48701 | 33025 ft | 497 kts | 122° |
| 2026-05-07 16:11 | 48.30977 | 10.57524 | 33018 ft | 497 kts | 122° |
| 2026-05-07 16:12 | 48.27385 | 10.66386 | 33019 ft | 497 kts | 123° |
| 2026-05-07 16:12 | 48.23785 | 10.75237 | 33022 ft | 497 kts | 123° |
| 2026-05-07 16:13 | 48.20181 | 10.84071 | 33022 ft | 497 kts | 123° |
| 2026-05-07 16:13 | 48.16593 | 10.92835 | 33022 ft | 497 kts | 123° |
| 2026-05-07 16:14 | 48.12975 | 11.01645 | 33021 ft | 497 kts | 123° |
| 2026-05-07 16:14 | 48.09351 | 11.10440 | 33013 ft | 497 kts | 123° |
| 2026-05-07 16:15 | 48.05720 | 11.19225 | 33025 ft | 497 kts | 123° |
| 2026-05-07 16:15 | 48.02079 | 11.28002 | 33020 ft | 497 kts | 123° |
| 2026-05-07 16:16 | 47.98456 | 11.36710 | 33029 ft | 497 kts | 123° |
| 2026-05-07 16:16 | 47.94801 | 11.45467 | 33015 ft | 497 kts | 123° |
| 2026-05-07 16:17 | 47.91140 | 11.54211 | 33021 ft | 497 kts | 124° |
| 2026-05-07 16:17 | 47.87472 | 11.62941 | 33015 ft | 497 kts | 124° |
| 2026-05-07 16:18 | 47.83801 | 11.71652 | 33007 ft | 497 kts | 124° |
| 2026-05-07 16:18 | 47.80121 | 11.80356 | 33025 ft | 497 kts | 124° |
| 2026-05-07 16:19 | 47.76454 | 11.89001 | 33020 ft | 498 kts | 125° |
| 2026-05-07 16:19 | 47.72755 | 11.97694 | 33029 ft | 498 kts | 125° |
| 2026-05-07 16:20 | 47.69044 | 12.06389 | 33021 ft | 498 kts | 125° |
| 2026-05-07 16:20 | 47.65328 | 12.15066 | 33023 ft | 499 kts | 125° |
| 2026-05-07 16:21 | 47.61606 | 12.23736 | 33028 ft | 498 kts | 125° |
| 2026-05-07 16:21 | 47.57826 | 12.32345 | 32997 ft | 497 kts | 129° |
| 2026-05-07 16:22 | 47.53158 | 12.39765 | 33018 ft | 490 kts | 142° |
| 2026-05-07 16:22 | 47.47719 | 12.45672 | 33019 ft | 488 kts | 149° |
| 2026-05-07 16:23 | 47.42116 | 12.51340 | 33031 ft | 489 kts | 149° |
| 2026-05-07 16:23 | 47.36513 | 12.57064 | 33026 ft | 490 kts | 149° |
| 2026-05-07 16:24 | 47.30934 | 12.62795 | 33020 ft | 489 kts | 149° |
| 2026-05-07 16:24 | 47.25393 | 12.68472 | 33008 ft | 488 kts | 149° |
| 2026-05-07 16:25 | 47.19820 | 12.74163 | 33021 ft | 487 kts | 149° |
| 2026-05-07 16:25 | 47.14253 | 12.79837 | 33014 ft | 486 kts | 149° |
| 2026-05-07 16:26 | 47.08684 | 12.85490 | 33000 ft | 486 kts | 149° |
| 2026-05-07 16:26 | 47.03153 | 12.91091 | 33001 ft | 487 kts | 150° |
| 2026-05-07 16:27 | 46.97581 | 12.96727 | 33008 ft | 486 kts | 150° |
| 2026-05-07 16:27 | 46.91996 | 13.02353 | 32997 ft | 487 kts | 150° |
| 2026-05-07 16:28 | 46.86406 | 13.07974 | 32998 ft | 488 kts | 150° |
| 2026-05-07 16:28 | 46.80793 | 13.13600 | 32963 ft | 490 kts | 150° |
| 2026-05-07 16:29 | 46.75219 | 13.19177 | 32996 ft | 489 kts | 150° |
| 2026-05-07 16:29 | 46.69594 | 13.24787 | 32977 ft | 490 kts | 150° |
| 2026-05-07 16:30 | 46.63957 | 13.30402 | 32974 ft | 491 kts | 150° |
| 2026-05-07 16:30 | 46.58332 | 13.36044 | 32953 ft | 492 kts | 148° |
| 2026-05-07 16:31 | 46.53264 | 13.42720 | 32955 ft | 499 kts | 136° |
| 2026-05-07 16:31 | 46.48664 | 13.50297 | 32970 ft | 502 kts | 136° |
| 2026-05-07 16:32 | 46.44015 | 13.57864 | 32972 ft | 502 kts | 137° |
| 2026-05-07 16:32 | 46.39345 | 13.65394 | 32959 ft | 502 kts | 137° |
| 2026-05-07 16:33 | 46.34700 | 13.72838 | 32933 ft | 501 kts | 138° |
| 2026-05-07 16:33 | 46.30029 | 13.80299 | 32980 ft | 499 kts | 138° |
| 2026-05-07 16:34 | 46.25353 | 13.87742 | 32954 ft | 499 kts | 138° |
| 2026-05-07 16:34 | 46.20682 | 13.95159 | 32971 ft | 500 kts | 139° |
| 2026-05-07 16:35 | 46.16022 | 14.02541 | 32964 ft | 501 kts | 139° |
| 2026-05-07 16:35 | 46.11324 | 14.09972 | 32950 ft | 501 kts | 139° |
| 2026-05-07 16:36 | 46.06627 | 14.17384 | 32949 ft | 503 kts | 139° |
| 2026-05-07 16:36 | 46.01857 | 14.24870 | 32971 ft | 511 kts | 139° |
| 2026-05-07 16:37 | 45.97042 | 14.32411 | 32957 ft | 512 kts | 139° |
| 2026-05-07 16:37 | 45.92269 | 14.39883 | 32958 ft | 508 kts | 139° |
| 2026-05-07 16:38 | 45.87510 | 14.47312 | 32975 ft | 505 kts | 140° |
| 2026-05-07 16:38 | 45.82735 | 14.54733 | 32958 ft | 507 kts | 140° |
| 2026-05-07 16:39 | 45.77943 | 14.62162 | 32966 ft | 508 kts | 140° |
| 2026-05-07 16:39 | 45.73176 | 14.69531 | 32966 ft | 507 kts | 140° |
| 2026-05-07 16:40 | 45.68401 | 14.76898 | 32981 ft | 504 kts | 140° |
| 2026-05-07 16:40 | 45.63634 | 14.84233 | 32961 ft | 502 kts | 139° |
| 2026-05-07 16:41 | 45.58885 | 14.91515 | 32995 ft | 501 kts | 140° |
| 2026-05-07 16:41 | 45.54114 | 14.98807 | 32938 ft | 503 kts | 139° |
| 2026-05-07 16:42 | 45.49375 | 15.06038 | 32979 ft | 503 kts | 140° |
| 2026-05-07 16:42 | 45.44584 | 15.13331 | 32999 ft | 505 kts | 140° |
| 2026-05-07 16:43 | 45.39774 | 15.20633 | 32962 ft | 505 kts | 140° |
| 2026-05-07 16:43 | 45.34977 | 15.27897 | 32985 ft | 503 kts | 140° |
| 2026-05-07 16:44 | 45.30213 | 15.35088 | 32974 ft | 503 kts | 140° |
| 2026-05-07 16:44 | 45.25416 | 15.42311 | 32992 ft | 503 kts | 140° |
| 2026-05-07 16:45 | 45.20606 | 15.49532 | 32977 ft | 503 kts | 140° |
| 2026-05-07 16:45 | 45.15795 | 15.56737 | 32959 ft | 503 kts | 139° |
| 2026-05-07 16:46 | 45.11018 | 15.63875 | 32985 ft | 502 kts | 140° |
| 2026-05-07 16:46 | 45.06213 | 15.71035 | 32991 ft | 501 kts | 140° |
| 2026-05-07 16:47 | 45.01407 | 15.78178 | 33015 ft | 501 kts | 140° |
| 2026-05-07 16:47 | 44.96596 | 15.85306 | 32986 ft | 502 kts | 139° |
| 2026-05-07 16:48 | 44.91809 | 15.92382 | 33009 ft | 501 kts | 139° |
| 2026-05-07 16:48 | 44.86989 | 15.99490 | 33013 ft | 501 kts | 139° |
| 2026-05-07 16:49 | 44.82170 | 16.06582 | 32995 ft | 501 kts | 139° |
| 2026-05-07 16:49 | 44.77376 | 16.13611 | 33005 ft | 501 kts | 139° |
| 2026-05-07 16:50 | 44.72547 | 16.20676 | 33015 ft | 501 kts | 139° |
| 2026-05-07 16:50 | 44.67707 | 16.27740 | 33038 ft | 502 kts | 139° |
| 2026-05-07 16:51 | 44.62860 | 16.34797 | 33029 ft | 502 kts | 139° |
| 2026-05-07 16:51 | 44.58011 | 16.41840 | 32988 ft | 501 kts | 139° |
| 2026-05-07 16:52 | 44.53174 | 16.48845 | 33034 ft | 500 kts | 139° |
| 2026-05-07 16:52 | 44.48359 | 16.55801 | 33041 ft | 501 kts | 139° |
| 2026-05-07 16:53 | 44.43495 | 16.62808 | 33034 ft | 502 kts | 139° |
| 2026-05-07 16:53 | 44.38618 | 16.69821 | 33027 ft | 503 kts | 140° |
| 2026-05-07 16:54 | 44.33736 | 16.76824 | 33034 ft | 503 kts | 140° |
| 2026-05-07 16:54 | 44.28959 | 16.83859 | 33032 ft | 506 kts | 135° |
| 2026-05-07 16:55 | 44.24420 | 16.91367 | 33053 ft | 507 kts | 135° |
| 2026-05-07 16:55 | 44.19877 | 16.98912 | 33045 ft | 508 kts | 135° |
| 2026-05-07 16:56 | 44.15344 | 17.06387 | 33066 ft | 508 kts | 135° |
| 2026-05-07 16:56 | 44.08470 | 17.17635 | 33070 ft | 508 kts | 135° |
| 2026-05-07 16:57 | 44.03883 | 17.25116 | 33041 ft | 509 kts | 136° |
| 2026-05-07 16:57 | 43.99290 | 17.32587 | 33067 ft | 509 kts | 136° |
| 2026-05-07 16:58 | 43.94724 | 17.39996 | 33064 ft | 508 kts | 136° |
| 2026-05-07 16:58 | 43.90124 | 17.47443 | 33070 ft | 509 kts | 136° |
| 2026-05-07 16:59 | 43.85502 | 17.54902 | 33047 ft | 510 kts | 135° |
| 2026-05-07 16:59 | 43.80874 | 17.62352 | 33032 ft | 510 kts | 136° |
| 2026-05-07 17:00 | 43.76286 | 17.69723 | 33068 ft | 509 kts | 136° |
| 2026-05-07 17:00 | 43.71662 | 17.77132 | 33076 ft | 509 kts | 136° |
| 2026-05-07 17:01 | 43.67037 | 17.84524 | 33057 ft | 508 kts | 136° |
| 2026-05-07 17:01 | 43.62419 | 17.91883 | 33070 ft | 507 kts | 136° |
| 2026-05-07 17:02 | 43.57801 | 17.99222 | 33061 ft | 507 kts | 136° |
| 2026-05-07 17:02 | 43.53199 | 18.06515 | 33036 ft | 508 kts | 136° |
| 2026-05-07 17:03 | 43.48565 | 18.13849 | 33066 ft | 509 kts | 136° |
| 2026-05-07 17:03 | 43.43906 | 18.21196 | 33051 ft | 510 kts | 136° |
| 2026-05-07 17:04 | 43.39240 | 18.28543 | 33120 ft | 510 kts | 136° |
| 2026-05-07 17:04 | 43.34584 | 18.35845 | 33065 ft | 511 kts | 136° |
| 2026-05-07 17:05 | 43.29899 | 18.43180 | 33067 ft | 511 kts | 136° |
| 2026-05-07 17:05 | 43.25209 | 18.50504 | 33077 ft | 511 kts | 136° |
| 2026-05-07 17:06 | 43.20521 | 18.57808 | 33078 ft | 511 kts | 136° |
| 2026-05-07 17:06 | 43.15851 | 18.65064 | 33076 ft | 511 kts | 136° |
| 2026-05-07 17:07 | 43.11148 | 18.72353 | 33075 ft | 511 kts | 136° |
| 2026-05-07 17:07 | 43.06446 | 18.79623 | 33065 ft | 510 kts | 136° |
| 2026-05-07 17:08 | 43.01733 | 18.86891 | 33061 ft | 510 kts | 136° |
| 2026-05-07 17:08 | 42.97014 | 18.94147 | 33078 ft | 512 kts | 136° |
| 2026-05-07 17:09 | 42.92276 | 19.01416 | 33082 ft | 514 kts | 136° |
| 2026-05-07 17:09 | 42.87548 | 19.08653 | 33077 ft | 515 kts | 136° |
| 2026-05-07 17:10 | 42.82779 | 19.15936 | 33073 ft | 515 kts | 136° |
| 2026-05-07 17:10 | 42.78008 | 19.23202 | 33080 ft | 515 kts | 136° |
| 2026-05-07 17:11 | 42.73227 | 19.30462 | 33070 ft | 516 kts | 136° |
| 2026-05-07 17:11 | 42.68472 | 19.37672 | 33090 ft | 515 kts | 136° |
| 2026-05-07 17:12 | 42.63661 | 19.44944 | 33080 ft | 519 kts | 136° |
| 2026-05-07 17:12 | 42.58816 | 19.52250 | 33088 ft | 522 kts | 136° |
| 2026-05-07 17:13 | 42.53929 | 19.59539 | 33077 ft | 521 kts | 139° |
| 2026-05-07 17:13 | 42.48526 | 19.65877 | 33069 ft | 515 kts | 147° |
| 2026-05-07 17:14 | 42.42892 | 19.71870 | 33101 ft | 515 kts | 147° |
| 2026-05-07 17:14 | 42.37278 | 19.77908 | 33102 ft | 515 kts | 146° |
| 2026-05-07 17:15 | 42.31676 | 19.83970 | 33098 ft | 518 kts | 146° |
| 2026-05-07 17:15 | 42.26047 | 19.90058 | 33067 ft | 518 kts | 146° |
| 2026-05-07 17:16 | 42.20448 | 19.96088 | 33080 ft | 520 kts | 146° |
| 2026-05-07 17:16 | 42.14794 | 20.02174 | 33094 ft | 521 kts | 146° |
| 2026-05-07 17:17 | 42.09116 | 20.08263 | 33090 ft | 522 kts | 146° |
| 2026-05-07 17:17 | 42.03433 | 20.14344 | 33073 ft | 522 kts | 146° |
| 2026-05-07 17:18 | 41.97771 | 20.20389 | 33109 ft | 524 kts | 147° |
| 2026-05-07 17:18 | 41.92035 | 20.26493 | 33098 ft | 528 kts | 147° |
| 2026-05-07 17:19 | 41.86275 | 20.32616 | 33100 ft | 528 kts | 147° |
| 2026-05-07 17:19 | 41.80508 | 20.38732 | 33105 ft | 529 kts | 147° |
| 2026-05-07 17:20 | 41.74764 | 20.44807 | 33103 ft | 531 kts | 148° |
| 2026-05-07 17:20 | 41.68942 | 20.50949 | 33117 ft | 533 kts | 147° |
| 2026-05-07 17:21 | 41.63105 | 20.57106 | 33116 ft | 535 kts | 147° |
| 2026-05-07 17:21 | 41.57272 | 20.63271 | 33122 ft | 533 kts | 147° |
| 2026-05-07 17:22 | 41.51444 | 20.69419 | 33096 ft | 535 kts | 148° |
| 2026-05-07 17:22 | 41.45616 | 20.75550 | 33117 ft | 539 kts | 148° |
| 2026-05-07 17:23 | 41.39699 | 20.81754 | 33113 ft | 542 kts | 147° |
| 2026-05-07 17:23 | 41.33766 | 20.87964 | 33110 ft | 544 kts | 147° |
| 2026-05-07 17:24 | 41.27805 | 20.94191 | 33084 ft | 544 kts | 148° |
| 2026-05-07 17:24 | 41.21891 | 21.00352 | 33163 ft | 544 kts | 148° |
| 2026-05-07 17:25 | 41.15916 | 21.06563 | 33125 ft | 546 kts | 148° |
| 2026-05-07 17:25 | 41.09918 | 21.12783 | 33113 ft | 547 kts | 148° |
| 2026-05-07 17:26 | 41.03914 | 21.18992 | 33128 ft | 548 kts | 148° |
| 2026-05-07 17:26 | 40.97938 | 21.25160 | 33143 ft | 547 kts | 148° |
| 2026-05-07 17:27 | 40.91924 | 21.31357 | 33147 ft | 548 kts | 148° |
| 2026-05-07 17:27 | 40.85890 | 21.37529 | 33128 ft | 549 kts | 150° |
| 2026-05-07 17:28 | 40.79685 | 21.43380 | 33130 ft | 548 kts | 152° |
| 2026-05-07 17:28 | 40.73442 | 21.49044 | 33131 ft | 549 kts | 152° |
| 2026-05-07 17:29 | 40.67168 | 21.54782 | 33128 ft | 548 kts | 152° |
| 2026-05-07 17:29 | 40.60933 | 21.60539 | 33106 ft | 547 kts | 152° |
| 2026-05-07 17:30 | 40.54707 | 21.66303 | 33105 ft | 547 kts | 152° |
| 2026-05-07 17:30 | 40.48494 | 21.72033 | 33120 ft | 545 kts | 152° |
| 2026-05-07 17:31 | 40.42318 | 21.77709 | 33126 ft | 545 kts | 152° |
| 2026-05-07 17:31 | 40.36096 | 21.83409 | 33126 ft | 546 kts | 152° |
| 2026-05-07 17:32 | 40.29846 | 21.89122 | 33127 ft | 548 kts | 152° |
| 2026-05-07 17:32 | 40.24643 | 21.93871 | 33122 ft | 549 kts | 152° |
| 2026-05-07 17:33 | 40.17295 | 22.00564 | 33300 ft | 553 kts | 152° |
| 2026-05-07 17:33 | 40.14176 | 22.03398 | 33484 ft | 555 kts | 152° |
| 2026-05-07 17:33 | 40.10994 | 22.06286 | 33595 ft | 557 kts | 152° |
| 2026-05-07 17:34 | 40.04599 | 22.12079 | 33787 ft | 561 kts | 152° |
| 2026-05-07 17:34 | 39.98148 | 22.17910 | 33917 ft | 567 kts | 152° |
| 2026-05-07 17:35 | 39.91680 | 22.23745 | 34151 ft | 571 kts | 152° |
| 2026-05-07 17:35 | 39.88416 | 22.26688 | 34260 ft | 572 kts | 152° |
| 2026-05-07 17:35 | 39.85147 | 22.29631 | 34446 ft | 570 kts | 152° |
| 2026-05-07 17:36 | 39.81884 | 22.32566 | 34654 ft | 569 kts | 152° |
| 2026-05-07 17:36 | 39.78631 | 22.35489 | 34830 ft | 569 kts | 152° |
| 2026-05-07 17:36 | 39.75375 | 22.38407 | 34967 ft | 568 kts | 152° |
| 2026-05-07 17:36 | 39.72116 | 22.41323 | 35037 ft | 570 kts | 152° |
| 2026-05-07 17:37 | 39.65582 | 22.47159 | 35104 ft | 570 kts | 152° |
| 2026-05-07 17:37 | 39.59078 | 22.52954 | 35104 ft | 572 kts | 152° |
| 2026-05-07 17:38 | 39.52504 | 22.58801 | 35102 ft | 574 kts | 152° |
| 2026-05-07 17:38 | 39.45918 | 22.64648 | 35102 ft | 574 kts | 152° |
| 2026-05-07 17:39 | 39.40445 | 22.69496 | 35099 ft | 573 kts | 152° |
| 2026-05-07 17:39 | 39.32804 | 22.76248 | 35103 ft | 571 kts | 152° |
| 2026-05-07 17:40 | 39.26250 | 22.82024 | 35089 ft | 570 kts | 152° |
| 2026-05-07 17:40 | 39.19707 | 22.87777 | 35098 ft | 569 kts | 152° |
| 2026-05-07 17:41 | 39.14272 | 22.92544 | 35098 ft | 568 kts | 152° |
| 2026-05-07 17:41 | 39.06675 | 22.99193 | 35105 ft | 568 kts | 152° |
| 2026-05-07 17:42 | 39.00142 | 23.04898 | 35110 ft | 568 kts | 152° |
| 2026-05-07 17:42 | 38.94711 | 23.09631 | 35097 ft | 567 kts | 151° |
| 2026-05-07 17:43 | 38.88172 | 23.15317 | 35105 ft | 569 kts | 151° |
| 2026-05-07 17:43 | 38.81606 | 23.21013 | 35092 ft | 571 kts | 151° |
| 2026-05-07 17:44 | 38.73952 | 23.27637 | 35101 ft | 572 kts | 151° |
| 2026-05-07 17:44 | 38.68475 | 23.32369 | 35090 ft | 571 kts | 151° |
| 2026-05-07 17:45 | 38.61907 | 23.38031 | 35095 ft | 570 kts | 151° |
| 2026-05-07 17:45 | 38.54268 | 23.44598 | 35100 ft | 569 kts | 151° |
| 2026-05-07 17:46 | 38.48758 | 23.49324 | 35102 ft | 569 kts | 151° |
| 2026-05-07 17:46 | 38.42176 | 23.54958 | 35091 ft | 570 kts | 151° |
| 2026-05-07 17:47 | 38.35645 | 23.60535 | 35105 ft | 569 kts | 151° |
| 2026-05-07 17:47 | 38.29058 | 23.66151 | 35114 ft | 570 kts | 151° |
| 2026-05-07 17:48 | 38.22470 | 23.71756 | 35119 ft | 570 kts | 151° |
| 2026-05-07 17:48 | 38.15875 | 23.77356 | 35128 ft | 571 kts | 150° |
| 2026-05-07 17:49 | 38.09360 | 23.83048 | 35131 ft | 573 kts | 149° |
| 2026-05-07 17:49 | 38.02807 | 23.88856 | 35124 ft | 575 kts | 149° |
| 2026-05-07 17:50 | 37.96232 | 23.94646 | 35130 ft | 576 kts | 149° |
| 2026-05-07 17:50 | 37.89633 | 24.00419 | 35130 ft | 576 kts | 149° |
| 2026-05-07 17:51 | 37.83035 | 24.06173 | 35119 ft | 575 kts | 149° |
| 2026-05-07 17:51 | 37.76483 | 24.11878 | 35128 ft | 576 kts | 149° |
| 2026-05-07 17:52 | 37.69864 | 24.17628 | 35121 ft | 578 kts | 149° |
| 2026-05-07 17:52 | 37.63249 | 24.23366 | 35134 ft | 577 kts | 149° |
| 2026-05-07 17:53 | 37.56639 | 24.29087 | 35133 ft | 576 kts | 149° |
| 2026-05-07 17:53 | 37.49948 | 24.34623 | 35138 ft | 573 kts | 152° |
| 2026-05-07 17:54 | 37.43197 | 24.39816 | 35144 ft | 573 kts | 153° |
| 2026-05-07 17:54 | 37.36397 | 24.45048 | 35121 ft | 573 kts | 152° |
| 2026-05-07 17:55 | 37.29622 | 24.50332 | 35136 ft | 573 kts | 152° |
| 2026-05-07 17:55 | 37.22856 | 24.55627 | 35136 ft | 573 kts | 152° |
| 2026-05-07 17:56 | 37.16082 | 24.60910 | 35138 ft | 574 kts | 152° |
| 2026-05-07 17:56 | 37.09344 | 24.66146 | 35133 ft | 572 kts | 152° |
| 2026-05-07 17:57 | 37.02584 | 24.71388 | 35139 ft | 571 kts | 152° |
| 2026-05-07 17:57 | 36.95834 | 24.76614 | 35144 ft | 570 kts | 152° |
| 2026-05-07 17:58 | 36.89093 | 24.81825 | 35146 ft | 569 kts | 152° |
| 2026-05-07 17:58 | 36.82425 | 24.87005 | 35135 ft | 567 kts | 152° |
| 2026-05-07 17:59 | 36.75743 | 24.92190 | 35140 ft | 565 kts | 152° |
| 2026-05-07 17:59 | 36.69075 | 24.97344 | 35141 ft | 563 kts | 152° |
| 2026-05-07 18:00 | 36.62399 | 25.02460 | 35145 ft | 564 kts | 152° |
| 2026-05-07 18:00 | 36.55709 | 25.07562 | 35142 ft | 565 kts | 152° |
| 2026-05-07 18:01 | 36.49050 | 25.12639 | 35146 ft | 566 kts | 152° |
| 2026-05-07 18:01 | 36.42326 | 25.17759 | 35136 ft | 567 kts | 152° |
| 2026-05-07 18:02 | 36.32218 | 25.25437 | 35122 ft | 568 kts | 152° |
| 2026-05-07 18:03 | 36.25466 | 25.30552 | 35137 ft | 569 kts | 152° |
| 2026-05-07 18:03 | 36.18752 | 25.35629 | 35145 ft | 570 kts | 152° |
| 2026-05-07 18:04 | 36.11973 | 25.40745 | 35150 ft | 571 kts | 152° |
| 2026-05-07 18:04 | 36.05183 | 25.45859 | 35129 ft | 572 kts | 152° |
| 2026-05-07 18:05 | 35.98390 | 25.50969 | 35139 ft | 572 kts | 152° |
| 2026-05-07 18:05 | 35.91639 | 25.56039 | 35139 ft | 572 kts | 152° |
| 2026-05-07 18:06 | 35.84837 | 25.61138 | 35131 ft | 572 kts | 152° |
| 2026-05-07 18:06 | 35.78044 | 25.66219 | 35116 ft | 572 kts | 152° |
| 2026-05-07 18:07 | 35.71236 | 25.71300 | 35133 ft | 572 kts | 152° |
| 2026-05-07 18:07 | 35.64422 | 25.76376 | 35132 ft | 573 kts | 152° |
| 2026-05-07 18:08 | 35.57650 | 25.81410 | 35129 ft | 573 kts | 152° |
| 2026-05-07 18:08 | 35.50825 | 25.86474 | 35130 ft | 573 kts | 152° |
| 2026-05-07 18:09 | 35.43996 | 25.91530 | 35130 ft | 573 kts | 152° |
| 2026-05-07 18:09 | 35.37160 | 25.96581 | 35138 ft | 574 kts | 152° |
| 2026-05-07 18:10 | 35.30353 | 26.01601 | 35136 ft | 576 kts | 152° |
| 2026-05-07 18:10 | 35.23484 | 26.06658 | 35125 ft | 577 kts | 151° |
| 2026-05-07 18:11 | 35.16606 | 26.11711 | 35141 ft | 577 kts | 151° |
| 2026-05-07 18:11 | 35.09713 | 26.16768 | 35144 ft | 578 kts | 151° |
| 2026-05-07 18:12 | 35.03190 | 26.22419 | 35142 ft | 581 kts | 140° |
| 2026-05-07 18:12 | 34.97108 | 26.28901 | 35146 ft | 580 kts | 139° |
| 2026-05-07 18:13 | 34.91010 | 26.35339 | 35143 ft | 580 kts | 140° |
| 2026-05-07 18:13 | 34.84881 | 26.41712 | 35151 ft | 579 kts | 140° |
| 2026-05-07 18:14 | 34.78783 | 26.48011 | 35148 ft | 579 kts | 140° |
| 2026-05-07 18:14 | 34.72636 | 26.54353 | 35156 ft | 579 kts | 140° |
| 2026-05-07 18:15 | 34.66491 | 26.60690 | 35160 ft | 580 kts | 140° |
| 2026-05-07 18:15 | 34.60339 | 26.67022 | 35155 ft | 579 kts | 140° |
| 2026-05-07 18:16 | 34.54233 | 26.73295 | 35159 ft | 579 kts | 140° |
| 2026-05-07 18:16 | 34.48079 | 26.79602 | 35160 ft | 579 kts | 140° |
| 2026-05-07 18:17 | 34.41923 | 26.85900 | 35159 ft | 579 kts | 140° |
| 2026-05-07 18:17 | 34.35757 | 26.92195 | 35165 ft | 581 kts | 139° |
| 2026-05-07 18:18 | 34.29578 | 26.98491 | 35160 ft | 581 kts | 139° |
| 2026-05-07 18:18 | 34.23433 | 27.04741 | 35162 ft | 582 kts | 139° |
| 2026-05-07 18:19 | 34.17237 | 27.11029 | 35159 ft | 582 kts | 140° |
| 2026-05-07 18:19 | 34.11028 | 27.17319 | 35178 ft | 582 kts | 140° |
| 2026-05-07 18:20 | 34.04811 | 27.23604 | 35156 ft | 584 kts | 139° |
| 2026-05-07 18:20 | 33.98624 | 27.29850 | 35159 ft | 585 kts | 139° |
| 2026-05-07 18:21 | 33.92213 | 27.35880 | 35161 ft | 585 kts | 147° |
| 2026-05-07 18:21 | 33.85422 | 27.41278 | 35163 ft | 585 kts | 147° |
| 2026-05-07 18:22 | 33.78667 | 27.46618 | 35145 ft | 574 kts | 147° |
| 2026-05-07 18:22 | 33.72076 | 27.51882 | 35161 ft | 573 kts | 146° |
| 2026-05-07 18:23 | 33.65441 | 27.57206 | 35169 ft | 575 kts | 146° |
| 2026-05-07 18:23 | 33.58779 | 27.62544 | 35167 ft | 576 kts | 146° |
| 2026-05-07 18:24 | 33.52109 | 27.67872 | 35162 ft | 576 kts | 146° |
| 2026-05-07 18:24 | 33.45487 | 27.73149 | 35139 ft | 575 kts | 146° |
| 2026-05-07 18:25 | 33.38847 | 27.78430 | 35154 ft | 572 kts | 146° |
| 2026-05-07 18:25 | 33.32231 | 27.83682 | 35155 ft | 569 kts | 147° |
| 2026-05-07 18:26 | 33.25633 | 27.88910 | 35157 ft | 568 kts | 147° |
| 2026-05-07 18:26 | 33.19097 | 27.94080 | 35162 ft | 568 kts | 147° |
| 2026-05-07 18:27 | 33.12508 | 27.99282 | 35165 ft | 567 kts | 147° |
| 2026-05-07 18:27 | 33.05924 | 28.04471 | 35169 ft | 567 kts | 147° |
| 2026-05-07 18:28 | 32.99328 | 28.09660 | 35166 ft | 569 kts | 146° |
| 2026-05-07 18:28 | 32.92744 | 28.14830 | 35179 ft | 573 kts | 146° |
| 2026-05-07 18:29 | 32.86054 | 28.20074 | 35162 ft | 578 kts | 146° |
| 2026-05-07 18:29 | 32.79335 | 28.25331 | 35167 ft | 578 kts | 147° |
| 2026-05-07 18:30 | 32.72626 | 28.30570 | 35157 ft | 576 kts | 147° |
| 2026-05-07 18:30 | 32.65985 | 28.35747 | 35156 ft | 574 kts | 147° |
| 2026-05-07 18:31 | 32.59309 | 28.40941 | 35166 ft | 573 kts | 146° |
| 2026-05-07 18:31 | 32.52635 | 28.46125 | 35167 ft | 574 kts | 146° |
| 2026-05-07 18:32 | 32.45956 | 28.51303 | 35166 ft | 574 kts | 146° |
| 2026-05-07 18:32 | 32.39262 | 28.56484 | 35165 ft | 575 kts | 146° |
| 2026-05-07 18:33 | 32.32603 | 28.61629 | 35166 ft | 576 kts | 146° |
| 2026-05-07 18:33 | 32.25898 | 28.66799 | 35171 ft | 576 kts | 146° |
| 2026-05-07 18:34 | 32.19185 | 28.71967 | 35167 ft | 576 kts | 146° |
| 2026-05-07 18:34 | 32.12465 | 28.77130 | 35164 ft | 576 kts | 146° |
| 2026-05-07 18:35 | 32.05741 | 28.82288 | 35164 ft | 576 kts | 146° |
| 2026-05-07 18:35 | 31.99067 | 28.87399 | 35145 ft | 576 kts | 146° |
| 2026-05-07 18:36 | 31.92341 | 28.92540 | 35152 ft | 576 kts | 146° |
| 2026-05-07 18:36 | 31.85620 | 28.97669 | 35173 ft | 576 kts | 146° |
| 2026-05-07 18:37 | 31.78896 | 29.02773 | 35154 ft | 574 kts | 148° |
| 2026-05-07 18:37 | 31.75393 | 29.04890 | 35150 ft | 574 kts | 160° |
| 2026-05-07 18:37 | 31.71617 | 29.06368 | 35156 ft | 571 kts | 169° |
| 2026-05-07 18:38 | 31.63843 | 29.07559 | 35143 ft | 558 kts | 186° |
| 2026-05-07 18:38 | 31.56075 | 29.07484 | 35171 ft | 559 kts | 186° |
| 2026-05-07 18:39 | 31.48273 | 29.07501 | 35158 ft | 562 kts | 185° |
| 2026-05-07 18:39 | 31.40487 | 29.07609 | 35162 ft | 563 kts | 185° |
| 2026-05-07 18:40 | 31.32648 | 29.07729 | 35146 ft | 563 kts | 185° |
| 2026-05-07 18:40 | 31.24818 | 29.07834 | 35154 ft | 562 kts | 185° |
| 2026-05-07 18:41 | 31.17011 | 29.07938 | 35149 ft | 560 kts | 185° |
| 2026-05-07 18:41 | 31.09231 | 29.08050 | 35149 ft | 558 kts | 185° |
| 2026-05-07 18:42 | 31.01520 | 29.08163 | 35145 ft | 557 kts | 185° |
| 2026-05-07 18:42 | 30.93769 | 29.08274 | 35143 ft | 557 kts | 185° |
| 2026-05-07 18:43 | 30.86037 | 29.08385 | 35146 ft | 557 kts | 185° |
| 2026-05-07 18:43 | 30.78278 | 29.08495 | 35143 ft | 557 kts | 185° |
| 2026-05-07 18:44 | 30.70575 | 29.08605 | 35122 ft | 558 kts | 185° |
| 2026-05-07 18:44 | 30.62815 | 29.08716 | 35135 ft | 557 kts | 185° |
| 2026-05-07 18:45 | 30.55071 | 29.08933 | 35124 ft | 559 kts | 176° |
| 2026-05-07 18:45 | 30.51267 | 29.09975 | 35119 ft | 566 kts | 160° |
| 2026-05-07 18:45 | 30.47740 | 29.11995 | 35135 ft | 567 kts | 146° |
| 2026-05-07 18:45 | 30.44698 | 29.14784 | 35102 ft | 563 kts | 130° |
| 2026-05-07 18:46 | 30.42133 | 29.18174 | 35122 ft | 560 kts | 126° |
| 2026-05-07 18:46 | 30.36854 | 29.24858 | 35123 ft | 564 kts | 132° |
| 2026-05-07 18:47 | 30.31279 | 29.31279 | 35117 ft | 566 kts | 131° |
| 2026-05-07 18:47 | 30.25783 | 29.37803 | 35111 ft | 567 kts | 130° |
| 2026-05-07 18:48 | 30.20344 | 29.44330 | 35104 ft | 567 kts | 130° |
| 2026-05-07 18:48 | 30.14869 | 29.50880 | 35099 ft | 567 kts | 130° |
| 2026-05-07 18:49 | 30.09374 | 29.57420 | 35085 ft | 566 kts | 130° |
| 2026-05-07 18:49 | 30.03894 | 29.63931 | 35088 ft | 565 kts | 130° |
| 2026-05-07 18:50 | 29.98453 | 29.70386 | 35086 ft | 565 kts | 130° |
| 2026-05-07 18:50 | 29.92973 | 29.76876 | 35083 ft | 564 kts | 130° |
| 2026-05-07 18:51 | 29.87499 | 29.83348 | 35093 ft | 564 kts | 130° |
| 2026-05-07 18:51 | 29.82014 | 29.89823 | 35079 ft | 565 kts | 130° |
| 2026-05-07 18:52 | 29.76518 | 29.96299 | 35063 ft | 565 kts | 130° |
| 2026-05-07 18:52 | 29.71061 | 30.02719 | 35067 ft | 565 kts | 130° |
| 2026-05-07 18:53 | 29.65556 | 30.09184 | 35062 ft | 565 kts | 130° |
| 2026-05-07 18:53 | 29.60052 | 30.15637 | 35070 ft | 565 kts | 130° |
| 2026-05-07 18:54 | 29.54549 | 30.22080 | 35050 ft | 564 kts | 130° |
| 2026-05-07 18:54 | 29.49086 | 30.28466 | 35045 ft | 563 kts | 130° |
| 2026-05-07 18:55 | 29.43598 | 30.34872 | 35048 ft | 562 kts | 130° |
| 2026-05-07 18:55 | 29.38114 | 30.41273 | 35048 ft | 562 kts | 129° |
| 2026-05-07 18:56 | 29.32699 | 30.47714 | 35042 ft | 561 kts | 129° |
| 2026-05-07 18:56 | 29.27307 | 30.54168 | 35037 ft | 560 kts | 129° |
| 2026-05-07 18:57 | 29.21949 | 30.60556 | 35037 ft | 560 kts | 129° |
| 2026-05-07 18:57 | 29.16544 | 30.66972 | 35036 ft | 559 kts | 129° |
| 2026-05-07 18:58 | 29.11140 | 30.73374 | 35036 ft | 560 kts | 129° |
| 2026-05-07 18:58 | 29.05728 | 30.79777 | 35036 ft | 560 kts | 129° |
| 2026-05-07 18:59 | 29.00349 | 30.86131 | 35030 ft | 560 kts | 129° |
| 2026-05-07 18:59 | 28.94930 | 30.92521 | 35037 ft | 560 kts | 129° |
| 2026-05-07 19:00 | 28.89514 | 30.98900 | 35050 ft | 558 kts | 129° |
| 2026-05-07 19:00 | 28.84126 | 31.05233 | 35029 ft | 555 kts | 129° |
| 2026-05-07 19:01 | 28.78799 | 31.11486 | 35038 ft | 552 kts | 129° |
| 2026-05-07 19:01 | 28.73456 | 31.17752 | 35040 ft | 551 kts | 129° |
| 2026-05-07 19:02 | 28.68133 | 31.24020 | 35033 ft | 550 kts | 128° |
| 2026-05-07 19:02 | 28.63041 | 31.30413 | 35038 ft | 537 kts | 127° |
| 2026-05-07 19:03 | 28.58096 | 31.36751 | 35045 ft | 537 kts | 128° |
| 2026-05-07 19:03 | 28.53134 | 31.43050 | 35046 ft | 540 kts | 128° |
| 2026-05-07 19:04 | 28.48085 | 31.49392 | 35044 ft | 542 kts | 128° |
| 2026-05-07 19:04 | 28.43039 | 31.55708 | 35051 ft | 533 kts | 129° |
| 2026-05-07 19:05 | 28.38114 | 31.61863 | 35047 ft | 524 kts | 129° |
| 2026-05-07 19:05 | 28.33234 | 31.67968 | 35052 ft | 527 kts | 129° |
| 2026-05-07 19:06 | 28.28288 | 31.74145 | 35037 ft | 530 kts | 129° |
| 2026-05-07 19:06 | 28.20819 | 31.83451 | 35058 ft | 533 kts | 129° |
| 2026-05-07 19:07 | 28.15826 | 31.89659 | 35045 ft | 532 kts | 129° |
| 2026-05-07 19:07 | 28.10888 | 31.95791 | 35042 ft | 529 kts | 129° |
| 2026-05-07 19:08 | 28.05940 | 32.01937 | 35037 ft | 527 kts | 128° |
| 2026-05-07 19:08 | 28.01598 | 32.08530 | 35055 ft | 520 kts | 117° |
| 2026-05-07 19:09 | 27.98173 | 32.15691 | 35030 ft | 516 kts | 114° |
| 2026-05-07 19:09 | 27.94787 | 32.22847 | 35018 ft | 515 kts | 115° |
| 2026-05-07 19:10 | 27.91390 | 32.29921 | 35003 ft | 516 kts | 115° |
| 2026-05-07 19:10 | 27.87945 | 32.37042 | 35013 ft | 517 kts | 115° |
| 2026-05-07 19:11 | 27.84483 | 32.44182 | 34974 ft | 518 kts | 115° |
| 2026-05-07 19:11 | 27.81039 | 32.51276 | 34978 ft | 519 kts | 115° |
| 2026-05-07 19:12 | 27.77565 | 32.58422 | 34975 ft | 519 kts | 115° |
| 2026-05-07 19:12 | 27.74091 | 32.65558 | 34980 ft | 519 kts | 116° |
| 2026-05-07 19:13 | 27.70612 | 32.72694 | 34973 ft | 518 kts | 116° |
| 2026-05-07 19:13 | 27.67136 | 32.79810 | 34959 ft | 517 kts | 116° |
| 2026-05-07 19:14 | 27.63683 | 32.86865 | 34952 ft | 517 kts | 116° |
| 2026-05-07 19:14 | 27.60207 | 32.93957 | 34958 ft | 517 kts | 117° |
| 2026-05-07 19:15 | 27.56728 | 33.01046 | 34954 ft | 516 kts | 117° |
| 2026-05-07 19:15 | 27.53274 | 33.08069 | 34943 ft | 516 kts | 117° |
| 2026-05-07 19:16 | 27.49797 | 33.15129 | 34944 ft | 515 kts | 117° |
| 2026-05-07 19:16 | 27.46323 | 33.22172 | 34947 ft | 514 kts | 117° |
| 2026-05-07 19:17 | 27.42852 | 33.29196 | 34937 ft | 513 kts | 117° |
| 2026-05-07 19:17 | 27.39385 | 33.36204 | 34941 ft | 512 kts | 117° |
| 2026-05-07 19:18 | 27.35938 | 33.43157 | 34937 ft | 512 kts | 118° |
| 2026-05-07 19:18 | 27.32460 | 33.50163 | 34920 ft | 514 kts | 118° |
| 2026-05-07 19:19 | 27.28971 | 33.57188 | 34931 ft | 515 kts | 118° |
| 2026-05-07 19:19 | 27.25466 | 33.64232 | 34932 ft | 517 kts | 118° |
| 2026-05-07 19:20 | 27.21947 | 33.71293 | 34936 ft | 518 kts | 118° |
| 2026-05-07 19:20 | 27.18459 | 33.78291 | 34939 ft | 516 kts | 117° |
| 2026-05-07 19:21 | 27.15556 | 33.85624 | 34938 ft | 513 kts | 109° |
| 2026-05-07 19:21 | 27.12975 | 33.93078 | 34933 ft | 512 kts | 110° |
| 2026-05-07 19:22 | 27.10361 | 34.00497 | 34927 ft | 511 kts | 110° |
| 2026-05-07 19:22 | 27.07736 | 34.07836 | 34916 ft | 510 kts | 110° |
| 2026-05-07 19:23 | 27.05090 | 34.15219 | 34903 ft | 510 kts | 110° |
| 2026-05-07 19:23 | 27.02444 | 34.22597 | 34907 ft | 510 kts | 111° |
| 2026-05-07 19:24 | 26.99798 | 34.29974 | 34906 ft | 510 kts | 111° |
| 2026-05-07 19:24 | 26.97174 | 34.37294 | 34897 ft | 510 kts | 111° |
| 2026-05-07 19:25 | 26.94526 | 34.44670 | 34901 ft | 510 kts | 111° |
| 2026-05-07 19:25 | 26.91875 | 34.52038 | 34897 ft | 510 kts | 111° |
| 2026-05-07 19:26 | 26.89221 | 34.59399 | 34892 ft | 509 kts | 111° |
| 2026-05-07 19:26 | 26.86567 | 34.66746 | 34898 ft | 509 kts | 111° |
| 2026-05-07 19:27 | 26.83929 | 34.74036 | 34901 ft | 509 kts | 111° |
| 2026-05-07 19:27 | 26.81274 | 34.81361 | 34901 ft | 507 kts | 111° |
| 2026-05-07 19:28 | 26.78620 | 34.88670 | 34898 ft | 506 kts | 111° |
| 2026-05-07 19:28 | 26.75966 | 34.95958 | 34895 ft | 506 kts | 111° |
| 2026-05-07 19:29 | 26.73319 | 35.03187 | 34904 ft | 505 kts | 112° |
| 2026-05-07 19:29 | 26.70650 | 35.10458 | 34898 ft | 505 kts | 112° |
| 2026-05-07 19:30 | 26.67982 | 35.17721 | 34901 ft | 505 kts | 112° |
| 2026-05-07 19:30 | 26.65329 | 35.24930 | 34897 ft | 505 kts | 112° |
| 2026-05-07 19:31 | 26.62653 | 35.32192 | 34898 ft | 505 kts | 113° |
| 2026-05-07 19:31 | 26.59974 | 35.39447 | 34897 ft | 505 kts | 113° |
| 2026-05-07 19:32 | 26.57291 | 35.46701 | 34896 ft | 505 kts | 113° |
| 2026-05-07 19:32 | 26.54575 | 35.53935 | 34899 ft | 505 kts | 114° |
| 2026-05-07 19:33 | 26.51823 | 35.61096 | 34894 ft | 505 kts | 115° |
| 2026-05-07 19:33 | 26.49050 | 35.68304 | 34892 ft | 506 kts | 115° |
| 2026-05-07 19:34 | 26.46278 | 35.75522 | 34884 ft | 506 kts | 115° |
| 2026-05-07 19:34 | 26.43511 | 35.82734 | 34900 ft | 506 kts | 116° |
| 2026-05-07 19:35 | 26.40746 | 35.89913 | 34895 ft | 508 kts | 116° |
| 2026-05-07 19:35 | 26.37952 | 35.97156 | 34895 ft | 509 kts | 116° |
| 2026-05-07 19:36 | 26.35151 | 36.04409 | 34894 ft | 509 kts | 116° |
| 2026-05-07 19:36 | 26.32345 | 36.11663 | 34893 ft | 509 kts | 116° |
| 2026-05-07 19:37 | 26.29537 | 36.18908 | 34891 ft | 509 kts | 116° |
| 2026-05-07 19:37 | 26.26746 | 36.26096 | 34874 ft | 509 kts | 117° |
| 2026-05-07 19:38 | 26.23936 | 36.33320 | 34883 ft | 508 kts | 117° |
| 2026-05-07 19:38 | 26.21125 | 36.40535 | 34886 ft | 508 kts | 117° |
| 2026-05-07 19:39 | 26.18310 | 36.47745 | 34885 ft | 508 kts | 117° |
| 2026-05-07 19:39 | 26.15707 | 36.53571 | 34877 ft | 504 kts | 123° |
| 2026-05-07 19:40 | 26.11738 | 36.61476 | 34894 ft | 503 kts | 124° |
| 2026-05-07 19:40 | 26.08321 | 36.68279 | 34894 ft | 504 kts | 124° |
| 2026-05-07 19:41 | 26.04940 | 36.75110 | 34877 ft | 504 kts | 124° |
| 2026-05-07 19:41 | 26.01594 | 36.81900 | 34889 ft | 504 kts | 124° |
| 2026-05-07 19:42 | 25.98220 | 36.88729 | 34901 ft | 504 kts | 124° |
| 2026-05-07 19:42 | 25.94843 | 36.95548 | 34904 ft | 504 kts | 124° |
| 2026-05-07 19:43 | 25.91460 | 37.02369 | 34895 ft | 504 kts | 126° |
| 2026-05-07 19:43 | 25.88097 | 37.09136 | 34900 ft | 504 kts | 126° |
| 2026-05-07 19:44 | 25.84707 | 37.15951 | 34900 ft | 504 kts | 126° |
| 2026-05-07 19:44 | 25.81314 | 37.22765 | 34898 ft | 504 kts | 126° |
| 2026-05-07 19:45 | 25.77919 | 37.29577 | 34903 ft | 504 kts | 127° |
| 2026-05-07 19:45 | 25.74544 | 37.36349 | 34919 ft | 505 kts | 127° |
| 2026-05-07 19:46 | 25.71145 | 37.43165 | 34924 ft | 505 kts | 127° |
| 2026-05-07 19:46 | 25.67734 | 37.50000 | 34922 ft | 507 kts | 127° |
| 2026-05-07 19:47 | 25.64312 | 37.56841 | 34936 ft | 508 kts | 127° |
| 2026-05-07 19:47 | 25.60876 | 37.63701 | 34930 ft | 510 kts | 127° |
| 2026-05-07 19:48 | 25.57447 | 37.70531 | 34938 ft | 511 kts | 127° |
| 2026-05-07 19:48 | 25.53992 | 37.77413 | 34920 ft | 511 kts | 128° |
| 2026-05-07 19:49 | 25.50536 | 37.84283 | 34920 ft | 510 kts | 128° |
| 2026-05-07 19:49 | 25.47083 | 37.91137 | 34912 ft | 509 kts | 128° |
| 2026-05-07 19:50 | 25.43656 | 37.97926 | 34894 ft | 508 kts | 128° |
| 2026-05-07 19:50 | 25.40219 | 38.04728 | 34908 ft | 506 kts | 128° |
| 2026-05-07 19:51 | 25.36784 | 38.11514 | 34900 ft | 505 kts | 128° |
| 2026-05-07 19:51 | 25.33344 | 38.18301 | 34910 ft | 506 kts | 128° |
| 2026-05-07 19:52 | 25.29925 | 38.25031 | 34897 ft | 506 kts | 128° |
| 2026-05-07 19:52 | 25.26473 | 38.31821 | 34903 ft | 507 kts | 128° |
| 2026-05-07 19:53 | 25.23011 | 38.38621 | 34911 ft | 508 kts | 128° |
| 2026-05-07 19:53 | 25.19549 | 38.45431 | 34895 ft | 509 kts | 128° |
| 2026-05-07 19:54 | 25.16094 | 38.52176 | 34918 ft | 507 kts | 128° |
| 2026-05-07 19:54 | 25.12632 | 38.58949 | 34913 ft | 506 kts | 128° |
| 2026-05-07 19:55 | 25.09173 | 38.65714 | 34889 ft | 506 kts | 128° |
| 2026-05-07 19:55 | 25.05709 | 38.72479 | 34920 ft | 507 kts | 128° |
| 2026-05-07 19:56 | 25.02246 | 38.79228 | 34936 ft | 505 kts | 128° |
| 2026-05-07 19:56 | 24.98799 | 38.85944 | 34944 ft | 508 kts | 128° |
| 2026-05-07 19:57 | 24.95307 | 38.92728 | 34917 ft | 510 kts | 129° |
| 2026-05-07 19:57 | 24.91786 | 38.99515 | 34931 ft | 511 kts | 129° |
| 2026-05-07 19:58 | 24.88247 | 39.06318 | 34942 ft | 512 kts | 129° |
| 2026-05-07 19:58 | 24.84733 | 39.13079 | 34913 ft | 512 kts | 129° |
| 2026-05-07 19:59 | 24.81204 | 39.19860 | 34927 ft | 509 kts | 129° |
| 2026-05-07 19:59 | 24.77690 | 39.26602 | 34930 ft | 507 kts | 129° |
| 2026-05-07 20:00 | 24.74184 | 39.33320 | 34937 ft | 506 kts | 129° |
| 2026-05-07 20:00 | 24.70679 | 39.40027 | 34944 ft | 506 kts | 129° |
| 2026-05-07 20:01 | 24.67195 | 39.46686 | 34960 ft | 506 kts | 129° |
| 2026-05-07 20:01 | 24.63675 | 39.53404 | 34958 ft | 507 kts | 129° |
| 2026-05-07 20:02 | 24.60159 | 39.60115 | 34973 ft | 505 kts | 129° |
| 2026-05-07 20:02 | 24.56695 | 39.66871 | 34968 ft | 515 kts | 124° |
| 2026-05-07 20:03 | 24.55352 | 39.70519 | 34969 ft | 528 kts | 117° |
| 2026-05-07 20:03 | 24.54351 | 39.74423 | 34962 ft | 533 kts | 110° |
| 2026-05-07 20:03 | 24.53399 | 39.82549 | 34951 ft | 537 kts | 102° |
| 2026-05-07 20:04 | 24.52724 | 39.90705 | 34963 ft | 536 kts | 102° |
| 2026-05-07 20:04 | 24.51995 | 39.98859 | 34965 ft | 537 kts | 103° |
| 2026-05-07 20:05 | 24.51214 | 40.06984 | 34953 ft | 540 kts | 103° |
| 2026-05-07 20:05 | 24.50408 | 40.15179 | 34958 ft | 541 kts | 103° |
| 2026-05-07 20:06 | 24.49602 | 40.23398 | 34950 ft | 542 kts | 103° |
| 2026-05-07 20:06 | 24.48797 | 40.31609 | 34950 ft | 540 kts | 104° |
| 2026-05-07 20:07 | 24.47990 | 40.39793 | 34946 ft | 539 kts | 104° |
| 2026-05-07 20:07 | 24.47184 | 40.47898 | 34923 ft | 537 kts | 104° |
| 2026-05-07 20:08 | 24.46372 | 40.56036 | 34947 ft | 535 kts | 104° |
| 2026-05-07 20:08 | 24.45558 | 40.64139 | 34956 ft | 534 kts | 104° |
| 2026-05-07 20:09 | 24.44739 | 40.72235 | 34973 ft | 534 kts | 104° |
| 2026-05-07 20:10 | 24.43507 | 40.84340 | 34963 ft | 535 kts | 104° |
| 2026-05-07 20:10 | 24.42677 | 40.92459 | 34940 ft | 536 kts | 104° |
| 2026-05-07 20:11 | 24.41842 | 41.00584 | 34963 ft | 536 kts | 104° |
| 2026-05-07 20:11 | 24.41004 | 41.08646 | 34970 ft | 535 kts | 105° |
| 2026-05-07 20:12 | 24.40070 | 41.16741 | 34961 ft | 535 kts | 105° |
| 2026-05-07 20:12 | 24.39094 | 41.24821 | 34981 ft | 535 kts | 105° |
| 2026-05-07 20:13 | 24.38120 | 41.32914 | 34990 ft | 535 kts | 105° |
| 2026-05-07 20:13 | 24.37159 | 41.40964 | 34982 ft | 536 kts | 105° |
| 2026-05-07 20:14 | 24.36190 | 41.49082 | 34996 ft | 537 kts | 105° |
| 2026-05-07 20:14 | 24.35215 | 41.57212 | 34984 ft | 538 kts | 105° |
| 2026-05-07 20:15 | 24.34234 | 41.65347 | 34991 ft | 538 kts | 105° |
| 2026-05-07 20:15 | 24.33255 | 41.73428 | 35003 ft | 538 kts | 105° |
| 2026-05-07 20:16 | 24.32265 | 41.81566 | 34990 ft | 538 kts | 105° |
| 2026-05-07 20:16 | 24.31273 | 41.89683 | 35012 ft | 537 kts | 106° |
| 2026-05-07 20:17 | 24.30276 | 41.97791 | 35006 ft | 537 kts | 106° |
| 2026-05-07 20:17 | 24.29285 | 42.05832 | 34998 ft | 535 kts | 105° |
| 2026-05-07 20:18 | 24.28284 | 42.13904 | 35004 ft | 534 kts | 106° |
| 2026-05-07 20:18 | 24.27279 | 42.21968 | 35004 ft | 534 kts | 105° |
| 2026-05-07 20:19 | 24.26271 | 42.30025 | 35018 ft | 534 kts | 105° |
| 2026-05-07 20:19 | 24.25267 | 42.38027 | 35020 ft | 534 kts | 105° |
| 2026-05-07 20:20 | 24.24251 | 42.46077 | 35016 ft | 533 kts | 105° |
| 2026-05-07 20:20 | 24.23232 | 42.54122 | 35026 ft | 533 kts | 105° |
| 2026-05-07 20:21 | 24.22209 | 42.62166 | 35018 ft | 533 kts | 105° |
| 2026-05-07 20:21 | 24.21188 | 42.70162 | 35030 ft | 533 kts | 105° |
| 2026-05-07 20:22 | 24.20155 | 42.78209 | 35040 ft | 534 kts | 105° |
| 2026-05-07 20:22 | 24.19117 | 42.86257 | 35045 ft | 534 kts | 105° |
| 2026-05-07 20:23 | 24.18252 | 42.92945 | 35045 ft | 534 kts | 105° |
| 2026-05-07 20:23 | 24.17037 | 43.02303 | 35040 ft | 534 kts | 105° |
| 2026-05-07 20:24 | 24.15985 | 43.10361 | 35040 ft | 534 kts | 105° |
| 2026-05-07 20:24 | 24.15108 | 43.17056 | 35052 ft | 534 kts | 105° |
| 2026-05-07 20:25 | 24.14050 | 43.25110 | 35046 ft | 534 kts | 105° |
| 2026-05-07 20:25 | 24.12815 | 43.34460 | 35055 ft | 534 kts | 105° |
| 2026-05-07 20:26 | 24.11748 | 43.42504 | 35072 ft | 534 kts | 105° |
| 2026-05-07 20:26 | 24.10859 | 43.49177 | 35067 ft | 532 kts | 105° |
| 2026-05-07 20:27 | 24.09792 | 43.57174 | 35061 ft | 530 kts | 105° |
| 2026-05-07 20:27 | 24.08723 | 43.65141 | 35053 ft | 528 kts | 105° |
| 2026-05-07 20:28 | 24.07654 | 43.73076 | 35063 ft | 526 kts | 105° |
| 2026-05-07 20:28 | 24.06593 | 43.80929 | 35070 ft | 525 kts | 105° |
| 2026-05-07 20:29 | 24.05517 | 43.88828 | 35075 ft | 525 kts | 105° |
| 2026-05-07 20:29 | 24.04432 | 43.96761 | 35263 ft | 529 kts | 105° |
| 2026-05-07 20:29 | 24.03886 | 44.00743 | 35410 ft | 531 kts | 105° |
| 2026-05-07 20:30 | 24.03336 | 44.04752 | 35517 ft | 533 kts | 105° |
| 2026-05-07 20:30 | 24.02786 | 44.08758 | 35680 ft | 533 kts | 105° |
| 2026-05-07 20:30 | 24.02236 | 44.12767 | 35836 ft | 534 kts | 105° |
| 2026-05-07 20:30 | 24.01689 | 44.16737 | 35964 ft | 535 kts | 105° |
| 2026-05-07 20:31 | 24.01132 | 44.20771 | 36086 ft | 537 kts | 105° |
| 2026-05-07 20:31 | 24.00573 | 44.24810 | 36246 ft | 537 kts | 105° |
| 2026-05-07 20:31 | 24.00019 | 44.28828 | 36597 ft | 532 kts | 105° |
| 2026-05-07 20:31 | 23.99469 | 44.32812 | 36999 ft | 528 kts | 106° |
| 2026-05-07 20:32 | 23.98920 | 44.36774 | 37066 ft | 529 kts | 106° |
| 2026-05-07 20:32 | 23.97809 | 44.44715 | 37044 ft | 525 kts | 106° |
| 2026-05-07 20:33 | 23.96715 | 44.52518 | 37055 ft | 522 kts | 106° |
| 2026-05-07 20:33 | 23.95610 | 44.60361 | 37065 ft | 522 kts | 106° |
| 2026-05-07 20:34 | 23.94500 | 44.68208 | 37068 ft | 522 kts | 106° |
| 2026-05-07 20:34 | 23.93386 | 44.76060 | 37043 ft | 523 kts | 106° |
| 2026-05-07 20:35 | 23.92275 | 44.83869 | 37043 ft | 524 kts | 106° |
| 2026-05-07 20:35 | 23.91152 | 44.91738 | 37036 ft | 524 kts | 106° |
| 2026-05-07 20:36 | 23.90024 | 44.99610 | 37048 ft | 524 kts | 106° |
| 2026-05-07 20:36 | 23.88893 | 45.07473 | 37028 ft | 523 kts | 106° |
| 2026-05-07 20:37 | 23.87761 | 45.15321 | 37030 ft | 522 kts | 106° |
| 2026-05-07 20:37 | 23.86634 | 45.23099 | 37012 ft | 521 kts | 105° |
| 2026-05-07 20:38 | 23.85498 | 45.30906 | 37008 ft | 520 kts | 106° |
| 2026-05-07 20:38 | 23.84358 | 45.38711 | 36986 ft | 520 kts | 105° |
| 2026-05-07 20:39 | 23.83225 | 45.46449 | 36975 ft | 519 kts | 105° |
| 2026-05-07 20:39 | 23.82081 | 45.54221 | 36980 ft | 518 kts | 106° |
| 2026-05-07 20:40 | 23.80935 | 45.61985 | 36968 ft | 518 kts | 105° |
| 2026-05-07 20:40 | 23.79785 | 45.69749 | 36970 ft | 518 kts | 105° |
| 2026-05-07 20:41 | 23.78632 | 45.77507 | 36956 ft | 518 kts | 105° |
| 2026-05-07 20:41 | 23.77482 | 45.85215 | 36965 ft | 518 kts | 105° |
| 2026-05-07 20:42 | 23.76319 | 45.92987 | 36940 ft | 518 kts | 105° |
| 2026-05-07 20:42 | 23.75155 | 46.00741 | 36946 ft | 518 kts | 105° |
| 2026-05-07 20:43 | 23.73986 | 46.08494 | 36946 ft | 518 kts | 105° |
| 2026-05-07 20:43 | 23.72823 | 46.16188 | 36947 ft | 517 kts | 105° |
| 2026-05-07 20:44 | 23.71647 | 46.23934 | 36956 ft | 517 kts | 105° |
| 2026-05-07 20:44 | 23.70469 | 46.31671 | 36949 ft | 517 kts | 105° |
| 2026-05-07 20:45 | 23.69287 | 46.39402 | 36953 ft | 517 kts | 105° |
| 2026-05-07 20:45 | 23.68103 | 46.47132 | 36963 ft | 517 kts | 105° |
| 2026-05-07 20:46 | 23.66919 | 46.54812 | 36968 ft | 517 kts | 105° |
| 2026-05-07 20:46 | 23.65724 | 46.62556 | 36963 ft | 518 kts | 105° |
| 2026-05-07 20:47 | 23.64524 | 46.70306 | 36955 ft | 518 kts | 106° |
| 2026-05-07 20:47 | 23.63320 | 46.78053 | 36950 ft | 518 kts | 105° |
| 2026-05-07 20:48 | 23.62120 | 46.85746 | 36928 ft | 518 kts | 105° |
| 2026-05-07 20:48 | 23.60910 | 46.93480 | 36930 ft | 517 kts | 105° |
| 2026-05-07 20:49 | 23.59696 | 47.01212 | 36929 ft | 517 kts | 105° |
| 2026-05-07 20:49 | 23.58481 | 47.08927 | 36925 ft | 517 kts | 105° |
| 2026-05-07 20:50 | 23.57269 | 47.16594 | 36920 ft | 516 kts | 105° |
| 2026-05-07 20:50 | 23.56046 | 47.24301 | 36917 ft | 516 kts | 105° |
| 2026-05-07 20:51 | 23.54823 | 47.31991 | 36909 ft | 515 kts | 105° |
| 2026-05-07 20:51 | 23.53597 | 47.39673 | 36901 ft | 514 kts | 105° |
| 2026-05-07 20:52 | 23.52377 | 47.47291 | 36909 ft | 513 kts | 105° |
| 2026-05-07 20:52 | 23.51148 | 47.54944 | 36911 ft | 513 kts | 105° |
| 2026-05-07 20:53 | 23.49912 | 47.62607 | 36902 ft | 513 kts | 105° |
| 2026-05-07 20:53 | 23.48675 | 47.70259 | 36902 ft | 513 kts | 105° |
| 2026-05-07 20:54 | 23.47434 | 47.77909 | 36882 ft | 513 kts | 105° |
| 2026-05-07 20:54 | 23.46199 | 47.85500 | 36889 ft | 512 kts | 105° |
| 2026-05-07 20:55 | 23.44952 | 47.93136 | 36889 ft | 512 kts | 105° |
| 2026-05-07 20:55 | 23.43703 | 48.00766 | 36881 ft | 512 kts | 105° |
| 2026-05-07 20:56 | 23.42449 | 48.08402 | 36876 ft | 512 kts | 105° |
| 2026-05-07 20:56 | 23.41191 | 48.16033 | 36871 ft | 512 kts | 105° |
| 2026-05-07 20:57 | 23.39937 | 48.23621 | 36864 ft | 513 kts | 105° |
| 2026-05-07 20:57 | 23.38672 | 48.31260 | 36870 ft | 512 kts | 105° |
| 2026-05-07 20:58 | 23.37600 | 48.38937 | 36873 ft | 514 kts | 101° |
| 2026-05-07 20:58 | 23.36769 | 48.46663 | 36855 ft | 514 kts | 101° |
| 2026-05-07 20:59 | 23.35961 | 48.54338 | 36853 ft | 514 kts | 101° |
| 2026-05-07 20:59 | 23.35122 | 48.62055 | 36854 ft | 513 kts | 101° |
| 2026-05-07 21:00 | 23.34264 | 48.69764 | 36846 ft | 513 kts | 101° |
| 2026-05-07 21:00 | 23.33400 | 48.77470 | 36846 ft | 513 kts | 101° |
| 2026-05-07 21:01 | 23.32538 | 48.85127 | 36846 ft | 513 kts | 101° |
| 2026-05-07 21:01 | 23.31670 | 48.92822 | 36837 ft | 513 kts | 101° |
| 2026-05-07 21:02 | 23.30797 | 49.00525 | 36846 ft | 513 kts | 101° |
| 2026-05-07 21:02 | 23.29921 | 49.08219 | 36849 ft | 513 kts | 101° |
| 2026-05-07 21:03 | 23.29041 | 49.15917 | 36842 ft | 513 kts | 101° |
| 2026-05-07 21:03 | 23.28163 | 49.23557 | 36840 ft | 513 kts | 101° |
| 2026-05-07 21:04 | 23.27275 | 49.31255 | 36834 ft | 513 kts | 101° |
| 2026-05-07 21:04 | 23.26383 | 49.38956 | 36831 ft | 513 kts | 101° |
| 2026-05-07 21:05 | 23.25489 | 49.46643 | 36837 ft | 512 kts | 101° |
| 2026-05-07 21:05 | 23.24598 | 49.54271 | 36830 ft | 511 kts | 101° |
| 2026-05-07 21:06 | 23.23697 | 49.61940 | 36830 ft | 511 kts | 101° |
| 2026-05-07 21:06 | 23.22795 | 49.69598 | 36834 ft | 511 kts | 101° |
| 2026-05-07 21:07 | 23.21888 | 49.77259 | 36834 ft | 511 kts | 101° |
| 2026-05-07 21:07 | 23.20977 | 49.84924 | 36831 ft | 512 kts | 101° |
| 2026-05-07 21:08 | 23.20067 | 49.92547 | 36831 ft | 512 kts | 101° |
| 2026-05-07 21:08 | 23.19147 | 50.00219 | 36829 ft | 512 kts | 101° |
| 2026-05-07 21:09 | 23.18226 | 50.07879 | 36835 ft | 511 kts | 101° |
| 2026-05-07 21:09 | 23.17300 | 50.15541 | 36836 ft | 511 kts | 101° |
| 2026-05-07 21:10 | 23.16371 | 50.23199 | 36833 ft | 511 kts | 101° |
| 2026-05-07 21:10 | 23.15445 | 50.30798 | 36837 ft | 511 kts | 101° |
| 2026-05-07 21:11 | 23.14508 | 50.38451 | 36839 ft | 511 kts | 101° |
| 2026-05-07 21:11 | 23.13096 | 50.49928 | 36833 ft | 511 kts | 101° |
| 2026-05-07 21:12 | 23.12151 | 50.57579 | 36833 ft | 510 kts | 101° |
| 2026-05-07 21:12 | 23.11210 | 50.65164 | 36827 ft | 510 kts | 101° |
| 2026-05-07 21:13 | 23.10260 | 50.72786 | 36833 ft | 509 kts | 101° |
| 2026-05-07 21:13 | 23.09309 | 50.80391 | 36831 ft | 508 kts | 101° |
| 2026-05-07 21:14 | 23.08355 | 50.87990 | 36831 ft | 507 kts | 101° |
| 2026-05-07 21:14 | 23.07404 | 50.95529 | 36831 ft | 508 kts | 101° |
| 2026-05-07 21:15 | 23.06442 | 51.03126 | 36833 ft | 508 kts | 101° |
| 2026-05-07 21:15 | 23.05476 | 51.10729 | 36831 ft | 508 kts | 101° |
| 2026-05-07 21:16 | 23.04507 | 51.18326 | 36831 ft | 507 kts | 101° |
| 2026-05-07 21:16 | 23.03538 | 51.25895 | 36827 ft | 505 kts | 101° |
| 2026-05-07 21:17 | 23.02574 | 51.33394 | 36829 ft | 504 kts | 101° |
| 2026-05-07 21:17 | 23.01602 | 51.40924 | 36827 ft | 504 kts | 101° |
| 2026-05-07 21:18 | 23.00627 | 51.48451 | 36828 ft | 504 kts | 101° |
| 2026-05-07 21:18 | 22.99647 | 51.55980 | 36828 ft | 504 kts | 101° |
| 2026-05-07 21:19 | 22.98672 | 51.63455 | 36830 ft | 504 kts | 101° |
| 2026-05-07 21:19 | 22.97685 | 51.70986 | 36828 ft | 504 kts | 101° |
| 2026-05-07 21:20 | 22.96695 | 51.78513 | 36826 ft | 504 kts | 101° |
| 2026-05-07 21:20 | 22.95702 | 51.86037 | 36825 ft | 503 kts | 101° |
| 2026-05-07 21:21 | 22.94713 | 51.93504 | 36826 ft | 503 kts | 101° |
| 2026-05-07 21:21 | 22.93715 | 52.01012 | 36823 ft | 503 kts | 101° |
| 2026-05-07 21:22 | 22.92713 | 52.08520 | 36823 ft | 503 kts | 101° |
| 2026-05-07 21:22 | 22.91708 | 52.16022 | 36821 ft | 502 kts | 101° |
| 2026-05-07 21:23 | 22.90700 | 52.23521 | 36821 ft | 502 kts | 101° |
| 2026-05-07 21:23 | 22.89695 | 52.30963 | 36821 ft | 502 kts | 101° |
| 2026-05-07 21:24 | 22.88682 | 52.38448 | 36822 ft | 501 kts | 101° |
| 2026-05-07 21:24 | 22.87667 | 52.45919 | 36819 ft | 500 kts | 101° |
| 2026-05-07 21:25 | 22.86650 | 52.53372 | 36819 ft | 499 kts | 101° |
| 2026-05-07 21:25 | 22.85631 | 52.60820 | 36824 ft | 499 kts | 101° |
| 2026-05-07 21:26 | 22.84616 | 52.68204 | 36824 ft | 499 kts | 101° |
| 2026-05-07 21:26 | 22.83591 | 52.75643 | 36822 ft | 499 kts | 101° |
| 2026-05-07 21:27 | 22.82562 | 52.83078 | 36829 ft | 499 kts | 101° |
| 2026-05-07 21:27 | 22.81529 | 52.90523 | 36824 ft | 500 kts | 101° |